Time;durP1;ratioP1;P1;durP2;ratioP2;P2;SDS_P1;SDS_P2;PMS_P1;PMS_P2;Temp;Humidity;BMP_temperature;BMP_pressure;BME280_temperature;BME280_humidity;BME280_pressure;Samples;Min_cycle;Max_cycle;Signal;HPM_P1;HPM_P2
2021/09/11 00:01:48;;;;;;;67.35;6.07;;;39.60;32.70;;;;;;5116866;27;20181;-50
2021/09/11 00:04:15;;;;;;;54.38;5.88;;;39.60;32.70;;;;;;5099304;27;20068;-53
2021/09/11 00:06:42;;;;;;;55.75;5.43;;;39.50;33.70;;;;;;5117451;27;20072;-51
2021/09/11 00:09:09;;;;;;;100.25;6.93;;;39.40;34.50;;;;;;5115609;27;20068;-50
2021/09/11 00:11:36;;;;;;;73.78;6.65;;;39.20;35.20;;;;;;5116757;27;20087;-51
2021/09/11 00:14:02;;;;;;;74.78;8.60;;;38.90;66.50;;;;;;5116018;27;20083;-50
2021/09/11 00:16:29;;;;;;;71.45;6.93;;;39.00;37.90;;;;;;5116417;27;20534;-50
2021/09/11 00:18:56;;;;;;;61.13;7.63;;;;;;;;;;5115390;27;20102;-53
2021/09/11 00:21:22;;;;;;;57.08;7.45;;;39.00;55.40;;;;;;5115640;27;20791;-54
2021/09/11 00:23:49;;;;;;;58.72;6.68;;;39.10;48.90;;;;;;5113144;27;20469;-55
2021/09/11 00:26:15;;;;;;;49.03;5.75;;;38.80;37.40;;;;;;5116723;27;20080;-56
2021/09/11 00:28:42;;;;;;;68.38;6.22;;;38.70;37.70;;;;;;5118252;27;20076;-57
2021/09/11 00:31:09;;;;;;;82.10;7.97;;;38.60;36.80;;;;;;5116373;27;20184;-57
2021/09/11 00:33:36;;;;;;;94.35;7.55;;;38.50;36.10;;;;;;5120254;27;20102;-56
2021/09/11 00:36:03;;;;;;;82.55;7.50;;;38.40;36.50;;;;;;5114117;27;20563;-55
2021/09/11 00:38:29;;;;;;;100.10;8.50;;;38.40;36.80;;;;;;5119143;27;20069;-57
2021/09/11 00:40:56;;;;;;;150.00;12.15;;;38.40;37.20;;;;;;5092877;28;20168;-55
2021/09/11 00:43:24;;;;;;;226.18;17.63;;;38.30;37.70;;;;;;5117751;27;20358;-55
2021/09/11 00:45:50;;;;;;;202.38;15.13;;;38.00;37.90;;;;;;5116154;27;20154;-56
2021/09/11 00:48:17;;;;;;;200.57;16.17;;;37.30;63.40;;;;;;5115313;27;20036;-56
2021/09/11 00:50:45;;;;;;;137.40;11.23;;;37.70;41.10;;;;;;5117641;27;20065;-57
2021/09/11 00:53:13;;;;;;;114.15;10.20;;;36.60;83.10;;;;;;5117901;27;20081;-55
2021/09/11 00:55:43;;;;;;;79.05;7.93;;;36.60;47.70;;;;;;5118634;27;20053;-55
2021/09/11 00:58:09;;;;;;;92.10;7.55;;;36.50;39.60;;;;;;5117608;27;20067;-54
2021/09/11 01:00:36;;;;;;;50.40;6.28;;;36.10;74.00;;;;;;5114019;27;20092;-55
2021/09/11 01:03:02;;;;;;;73.47;7.05;;;36.40;59.20;;;;;;5112122;27;20335;-52
2021/09/11 01:06:04;;;;;;;64.55;6.75;;;36.50;54.50;;;;;;5098994;27;20518;-57
2021/09/11 01:08:31;;;;;;;68.28;6.70;;;36.50;39.80;;;;;;5099515;28;20611;-54
2021/09/11 01:10:58;;;;;;;47.10;6.20;;;36.70;54.90;;;;;;5097170;28;20560;-53
2021/09/11 01:13:25;;;;;;;38.53;5.07;;;36.80;82.10;;;;;;5096094;28;20046;-55
2021/09/11 01:15:57;;;;;;;48.35;5.03;;;36.70;66.80;;;;;;5098065;28;20020;-53
2021/09/11 01:18:24;;;;;;;46.28;5.68;;;;;;;;;;5095484;28;20050;-54
2021/09/11 01:20:51;;;;;;;62.30;5.43;;;36.80;45.70;;;;;;5100368;28;20401;-55
2021/09/11 01:23:17;;;;;;;41.08;4.70;;;;;;;;;;5097103;28;20024;-56
2021/09/11 01:25:44;;;;;;;39.80;4.15;;;;;;;;;;5095331;28;20060;-57
2021/09/11 01:28:10;;;;;;;47.03;5.22;;;36.80;64.40;;;;;;5098209;28;20032;-54
2021/09/11 01:30:37;;;;;;;43.88;3.95;;;36.90;38.30;;;;;;5096868;28;20036;-56
2021/09/11 01:33:03;;;;;;;34.45;4.20;;;37.00;36.60;;;;;;5096966;28;20034;-54
2021/09/11 01:35:30;;;;;;;23.90;3.30;;;36.90;77.70;;;;;;5100276;28;20111;-58
2021/09/11 01:37:56;;;;;;;19.15;3.47;;;37.00;36.70;;;;;;5099443;28;20129;-59
2021/09/11 01:40:23;;;;;;;16.67;3.38;;;36.90;73.20;;;;;;5098904;28;20040;-58
2021/09/11 01:42:50;;;;;;;17.88;3.53;;;36.90;36.50;;;;;;5096097;28;20020;-57
2021/09/11 01:45:18;;;;;;;13.07;2.85;;;;;;;;;;5093346;28;20072;-56
2021/09/11 01:47:45;;;;;;;22.02;3.30;;;;;;;;;;5095065;28;20152;-56
2021/09/11 01:50:14;;;;;;;17.73;3.85;;;37.00;36.30;;;;;;5100000;28;20088;-58
2021/09/11 01:52:42;;;;;;;28.92;3.72;;;37.00;36.90;;;;;;5095482;28;20096;-58
2021/09/11 01:55:10;;;;;;;15.43;3.25;;;36.90;36.80;;;;;;5099370;28;20166;-56
2021/09/11 01:57:42;;;;;;;16.50;3.10;;;36.90;72.30;;;;;;5095981;28;20024;-58
2021/09/11 02:00:14;;;;;;;17.40;3.13;;;36.90;37.60;;;;;;5097493;28;20073;-58
2021/09/11 02:02:42;;;;;;;11.48;2.35;;;36.80;37.30;;;;;;5096155;28;20051;-58
2021/09/11 02:05:10;;;;;;;15.18;2.97;;;36.80;37.10;;;;;;5099738;28;20108;-55
2021/09/11 02:07:37;;;;;;;14.45;3.33;;;36.80;37.40;;;;;;5090158;28;20508;-56
2021/09/11 02:10:05;;;;;;;23.92;3.50;;;36.70;37.10;;;;;;5100737;28;20080;-57
2021/09/11 02:12:31;;;;;;;15.23;2.92;;;36.70;37.40;;;;;;5092097;28;20080;-55
2021/09/11 02:14:58;;;;;;;14.95;3.75;;;36.70;38.40;;;;;;5097843;28;20076;-55
2021/09/11 02:17:25;;;;;;;19.70;3.45;;;36.60;37.20;;;;;;5083431;28;20107;-55
2021/09/11 02:19:51;;;;;;;12.60;3.50;;;36.60;37.40;;;;;;5081757;28;20076;-57
2021/09/11 02:22:18;;;;;;;18.13;4.13;;;36.60;37.80;;;;;;5081385;28;20081;-57
2021/09/11 02:24:44;;;;;;;15.38;3.35;;;36.60;37.80;;;;;;5086486;28;20571;-55
2021/09/11 02:27:11;;;;;;;18.88;4.10;;;36.60;37.60;;;;;;5086828;28;20077;-57
2021/09/11 02:29:37;;;;;;;15.05;3.88;;;36.60;37.40;;;;;;5081576;28;20362;-53
2021/09/11 02:32:05;;;;;;;17.80;4.03;;;36.60;38.20;;;;;;5083602;28;20091;-54
2021/09/11 02:34:34;;;;;;;15.52;3.92;;;36.60;38.00;;;;;;5083104;28;20077;-54
2021/09/11 02:37:01;;;;;;;21.85;3.88;;;36.50;38.00;;;;;;5082890;28;20606;-53
2021/09/11 02:39:27;;;;;;;17.73;3.70;;;36.50;38.20;;;;;;5082346;28;20078;-55
2021/09/11 02:41:54;;;;;;;31.40;6.85;;;36.40;38.00;;;;;;5086642;28;20166;-53
2021/09/11 02:44:21;;;;;;;33.85;7.25;;;36.40;38.40;;;;;;5084504;28;20175;-55
2021/09/11 02:46:47;;;;;;;34.40;8.20;;;36.40;39.00;;;;;;5082010;28;20109;-52
2021/09/11 02:49:14;;;;;;;28.15;8.63;;;36.30;39.30;;;;;;5082145;28;20436;-54
2021/09/11 02:51:41;;;;;;;36.67;7.90;;;36.20;41.00;;;;;;5084747;28;20526;-55
2021/09/11 02:54:07;;;;;;;35.20;8.32;;;36.30;41.60;;;;;;5080056;28;20080;-55
2021/09/11 02:56:34;;;;;;;46.60;7.00;;;36.30;41.70;;;;;;5083279;28;20080;-53
2021/09/11 02:59:00;;;;;;;30.38;7.95;;;36.30;43.00;;;;;;5082484;28;20164;-55
2021/09/11 03:01:27;;;;;;;43.13;6.40;;;36.30;43.50;;;;;;5082813;28;20640;-54
2021/09/11 03:03:53;;;;;;;28.98;7.22;;;36.20;44.00;;;;;;5085196;28;20080;-55
2021/09/11 03:06:20;;;;;;;36.90;6.97;;;36.10;44.60;;;;;;5082104;28;20556;-56
2021/09/11 03:08:47;;;;;;;32.45;6.68;;;36.00;45.90;;;;;;5078413;28;20076;-55
2021/09/11 03:11:17;;;;;;;28.50;6.78;;;36.00;46.20;;;;;;5084253;28;20160;-56
2021/09/11 03:13:44;;;;;;;27.02;5.78;;;35.90;46.20;;;;;;5080059;28;20119;-57
2021/09/11 03:16:11;;;;;;;29.65;6.20;;;35.80;46.60;;;;;;5070960;28;20081;-56
2021/09/11 03:18:38;;;;;;;21.52;7.00;;;35.80;47.50;;;;;;5084093;28;20073;-57
2021/09/11 03:21:05;;;;;;;25.40;5.88;;;35.70;47.50;;;;;;5084027;28;20068;-56
2021/09/11 03:23:31;;;;;;;32.65;5.70;;;35.70;47.50;;;;;;5081250;28;20569;-55
2021/09/11 03:25:58;;;;;;;27.52;5.90;;;35.70;47.60;;;;;;5080099;28;20128;-57
2021/09/11 03:28:25;;;;;;;28.75;5.25;;;35.70;47.60;;;;;;5081057;28;20077;-56
2021/09/11 03:30:51;;;;;;;27.30;5.47;;;35.70;48.50;;;;;;5080785;28;20130;-54
2021/09/11 03:33:18;;;;;;;21.10;5.03;;;35.60;48.50;;;;;;5079906;28;20540;-57
2021/09/11 03:35:45;;;;;;;19.48;4.35;;;35.50;48.80;;;;;;5083150;28;20088;-52
2021/09/11 03:38:11;;;;;;;25.48;4.78;;;35.40;48.80;;;;;;5081192;28;20165;-55
2021/09/11 03:40:38;;;;;;;28.02;5.82;;;35.30;49.20;;;;;;5083352;28;20076;-56
2021/09/11 03:43:05;;;;;;;21.02;4.72;;;35.30;49.40;;;;;;5087353;28;20137;-56
2021/09/11 03:45:31;;;;;;;24.92;6.90;;;35.30;49.80;;;;;;5079259;28;20088;-57
2021/09/11 03:47:58;;;;;;;18.02;5.90;;;35.20;49.70;;;;;;5083744;28;20586;-57
2021/09/11 03:50:25;;;;;;;24.67;5.57;;;35.20;49.90;;;;;;5084886;28;20073;-55
2021/09/11 03:52:51;;;;;;;23.48;5.80;;;35.20;50.10;;;;;;5084334;28;20538;-53
2021/09/11 03:55:18;;;;;;;15.60;4.80;;;35.20;68.80;;;;;;5085717;28;20053;-60
2021/09/11 03:57:44;;;;;;;19.70;4.40;;;35.10;50.90;;;;;;5083342;28;20020;-56
2021/09/11 04:00:11;;;;;;;17.75;4.15;;;35.10;51.40;;;;;;5085072;28;20082;-60
2021/09/11 04:02:38;;;;;;;24.08;5.50;;;35.10;51.90;;;;;;5085451;28;20072;-57
2021/09/11 04:05:05;;;;;;;16.25;4.38;;;35.10;52.60;;;;;;5082004;28;20455;-59
2021/09/11 04:07:32;;;;;;;18.95;3.70;;;35.10;53.20;;;;;;5081804;28;20079;-57
2021/09/11 04:09:58;;;;;;;18.50;3.88;;;35.00;54.10;;;;;;5084443;28;20443;-54
2021/09/11 04:12:25;;;;;;;23.83;6.18;;;35.10;78.40;;;;;;5082844;28;20024;-54
2021/09/11 04:14:54;;;;;;;23.08;7.15;;;35.00;53.40;;;;;;5081782;28;20021;-51
2021/09/11 04:17:23;;;;;;;19.30;4.68;;;34.90;54.70;;;;;;5084863;28;20077;-54
2021/09/11 04:19:50;;;;;;;16.52;3.95;;;34.90;55.60;;;;;;5080701;28;20072;-54
2021/09/11 04:22:17;;;;;;;18.75;3.78;;;34.10;85.50;;;;;;5080616;28;20516;-57
2021/09/11 04:24:44;;;;;;;18.88;4.10;;;34.90;56.90;;;;;;5083217;28;20457;-55
2021/09/11 04:27:12;;;;;;;16.90;4.18;;;34.80;57.00;;;;;;5085680;28;20069;-55
2021/09/11 04:29:39;;;;;;;16.10;4.13;;;34.80;57.50;;;;;;5082873;28;20077;-53
2021/09/11 04:32:05;;;;;;;14.07;3.95;;;34.70;57.90;;;;;;5079635;28;20584;-52
2021/09/11 04:34:34;;;;;;;19.92;6.03;;;34.50;58.80;;;;;;5077878;28;20034;-58
2021/09/11 04:37:00;;;;;;;18.63;5.47;;;34.40;58.60;;;;;;5084438;28;20130;-55
2021/09/11 04:39:27;;;;;;;22.48;6.68;;;34.40;58.90;;;;;;5076269;28;20073;-56
2021/09/11 04:41:53;;;;;;;18.02;6.78;;;34.30;59.20;;;;;;5079064;28;20080;-54
2021/09/11 04:44:20;;;;;;;18.23;5.90;;;34.20;59.80;;;;;;5079490;28;20119;-56
2021/09/11 04:46:46;;;;;;;15.13;5.15;;;34.10;59.90;;;;;;5079249;28;20710;-52
2021/09/11 04:49:13;;;;;;;22.25;5.32;;;34.20;59.80;;;;;;5076573;28;20069;-50
2021/09/11 04:51:39;;;;;;;21.13;6.05;;;34.30;59.60;;;;;;5078989;28;20083;-52
2021/09/11 04:54:06;;;;;;;16.25;5.00;;;34.40;59.40;;;;;;5079852;28;20100;-57
2021/09/11 04:56:32;;;;;;;22.33;6.43;;;34.40;59.30;;;;;;5079205;28;20487;-58
2021/09/11 04:58:59;;;;;;;19.55;6.18;;;34.40;59.30;;;;;;5079638;28;20085;-57
2021/09/11 05:01:26;;;;;;;22.27;6.30;;;34.30;59.50;;;;;;5082146;28;20118;-56
2021/09/11 05:03:52;;;;;;;25.50;6.20;;;34.20;59.80;;;;;;5083060;28;20066;-57
2021/09/11 05:06:19;;;;;;;21.90;6.00;;;34.50;60.80;;;;;;5078666;28;20073;-57
2021/09/11 05:08:45;;;;;;;26.38;5.88;;;34.10;60.00;;;;;;5081819;28;20052;-54
2021/09/11 05:11:12;;;;;;;24.85;5.90;;;34.20;59.80;;;;;;5080641;28;20160;-56
2021/09/11 05:13:38;;;;;;;22.33;7.50;;;34.20;59.70;;;;;;5080171;28;20077;-58
2021/09/11 05:16:05;;;;;;;22.58;7.15;;;34.10;60.00;;;;;;5081623;28;20155;-56
2021/09/11 05:18:35;;;;;;;23.48;7.10;;;34.10;59.60;;;;;;5081496;28;20071;-55
2021/09/11 05:21:05;;;;;;;25.08;7.07;;;;;;;;;;5079147;28;20080;-59
2021/09/11 05:23:32;;;;;;;26.98;8.23;;;;;;;;;;5074149;28;20103;-58
2021/09/11 05:26:00;;;;;;;37.50;9.85;;;33.90;60.30;;;;;;5081804;28;20485;-57
2021/09/11 05:28:27;;;;;;;28.45;7.93;;;33.90;61.00;;;;;;5079469;28;20085;-56
2021/09/11 05:30:54;;;;;;;27.83;7.55;;;33.90;60.90;;;;;;5081059;28;20084;-56
2021/09/11 05:33:21;;;;;;;16.88;5.47;;;33.90;61.50;;;;;;5083216;28;20076;-55
2021/09/11 05:35:47;;;;;;;18.42;5.05;;;33.80;61.20;;;;;;5078526;28;20130;-56
2021/09/11 05:38:14;;;;;;;17.40;5.68;;;33.80;61.40;;;;;;5081927;28;20079;-55
2021/09/11 05:40:41;;;;;;;13.98;5.03;;;33.90;61.40;;;;;;5078791;28;20073;-56
2021/09/11 05:43:07;;;;;;;15.18;4.82;;;33.80;61.20;;;;;;5075895;28;20077;-59
2021/09/11 05:45:34;;;;;;;12.45;4.50;;;33.80;61.10;;;;;;5082804;28;20107;-54
2021/09/11 05:48:00;;;;;;;19.00;4.35;;;33.80;60.80;;;;;;5078005;28;20100;-56
2021/09/11 05:50:27;;;;;;;19.83;4.80;;;33.70;61.00;;;;;;5082086;28;20430;-58
2021/09/11 05:52:53;;;;;;;14.20;4.60;;;33.70;60.30;;;;;;5081691;28;20087;-57
2021/09/11 05:55:20;;;;;;;10.95;4.25;;;33.70;60.70;;;;;;5085096;28;20084;-58
2021/09/11 05:57:46;;;;;;;14.32;4.75;;;33.70;60.80;;;;;;5081488;28;20116;-58
2021/09/11 06:00:13;;;;;;;23.45;6.70;;;33.60;60.80;;;;;;5085510;28;20072;-58
2021/09/11 06:02:40;;;;;;;28.13;12.52;;;33.60;61.00;;;;;;5085583;28;20574;-57
2021/09/11 06:05:07;;;;;;;29.70;11.93;;;33.50;61.30;;;;;;5082722;28;20134;-57
2021/09/11 06:07:33;;;;;;;30.42;11.02;;;33.50;62.00;;;;;;5084030;28;20069;-56
2021/09/11 06:10:00;;;;;;;31.05;14.70;;;33.50;61.80;;;;;;5084285;28;20585;-58
2021/09/11 06:12:27;;;;;;;28.65;12.43;;;33.30;62.20;;;;;;5081983;28;20164;-59
2021/09/11 06:14:54;;;;;;;27.95;10.93;;;33.30;62.40;;;;;;5083833;28;20081;-56
2021/09/11 06:17:20;;;;;;;28.85;14.68;;;33.30;62.70;;;;;;5083334;28;20069;-56
2021/09/11 06:19:47;;;;;;;27.05;13.80;;;33.20;63.10;;;;;;5085270;28;20162;-57
2021/09/11 06:22:13;;;;;;;27.08;14.52;;;33.10;63.70;;;;;;5087807;28;20490;-56
2021/09/11 06:24:41;;;;;;;31.30;16.52;;;33.10;63.60;;;;;;5083517;28;20104;-56
2021/09/11 06:27:08;;;;;;;24.88;14.80;;;33.00;64.00;;;;;;5085382;28;20073;-57
2021/09/11 06:29:34;;;;;;;30.63;14.15;;;33.00;64.60;;;;;;5085266;28;20129;-55
2021/09/11 06:32:01;;;;;;;19.85;11.90;;;32.90;64.60;;;;;;5086702;28;20068;-54
2021/09/11 06:34:28;;;;;;;23.63;11.75;;;32.80;65.60;;;;;;5081758;28;20589;-54
2021/09/11 06:36:54;;;;;;;26.65;11.40;;;32.70;65.60;;;;;;5083360;28;20118;-58
2021/09/11 06:39:21;;;;;;;22.08;10.32;;;32.70;65.80;;;;;;5083387;28;20410;-57
2021/09/11 06:41:47;;;;;;;20.77;11.05;;;32.70;65.80;;;;;;5086008;28;20526;-57
2021/09/11 06:44:14;;;;;;;28.83;11.13;;;32.70;66.30;;;;;;5087501;28;20093;-58
2021/09/11 06:46:40;;;;;;;28.60;11.88;;;32.60;67.10;;;;;;5086113;28;20116;-59
2021/09/11 06:49:07;;;;;;;20.45;10.55;;;32.60;67.00;;;;;;5080874;28;20081;-55
2021/09/11 06:51:33;;;;;;;24.80;9.63;;;32.60;67.70;;;;;;5083027;28;20076;-55
2021/09/11 06:54:00;;;;;;;21.33;10.02;;;32.50;68.10;;;;;;5083022;28;20097;-55
2021/09/11 06:56:26;;;;;;;30.52;10.45;;;32.40;68.60;;;;;;5082256;28;20069;-57
2021/09/11 06:58:53;;;;;;;27.63;11.10;;;32.30;69.30;;;;;;5084309;28;20081;-51
2021/09/11 07:01:21;;;;;;;26.50;9.73;;;32.40;69.70;;;;;;5086511;28;20163;-56
2021/09/11 07:03:48;;;;;;;24.90;8.20;;;32.30;70.00;;;;;;5083780;28;20100;-56
2021/09/11 07:06:14;;;;;;;22.45;7.50;;;32.30;70.50;;;;;;5084114;28;20498;-53
2021/09/11 07:08:41;;;;;;;22.38;8.35;;;32.30;70.90;;;;;;5084003;28;20106;-54
2021/09/11 07:11:12;;;;;;;31.25;7.72;;;32.30;71.20;;;;;;5085125;28;20171;-57
2021/09/11 07:13:40;;;;;;;24.45;6.80;;;32.20;71.70;;;;;;5085028;28;20544;-58
2021/09/11 07:16:07;;;;;;;21.00;7.75;;;32.20;72.20;;;;;;5082618;28;20422;-54
2021/09/11 07:18:34;;;;;;;29.52;12.05;;;32.20;72.40;;;;;;5082957;28;20534;-53
2021/09/11 07:21:01;;;;;;;27.63;14.32;;;32.10;73.60;;;;;;5084266;28;20134;-58
2021/09/11 07:23:28;;;;;;;35.17;15.63;;;32.10;73.80;;;;;;5083451;28;20163;-53
2021/09/11 07:25:55;;;;;;;25.10;14.35;;;32.10;74.20;;;;;;5084496;28;20096;-56
2021/09/11 07:28:21;;;;;;;22.65;11.20;;;31.90;75.20;;;;;;5086102;28;20061;-53
2021/09/11 07:30:48;;;;;;;25.13;10.23;;;31.90;75.70;;;;;;5084996;28;20079;-53
2021/09/11 07:33:14;;;;;;;15.40;8.23;;;31.90;76.10;;;;;;5084319;28;20079;-56
2021/09/11 07:35:41;;;;;;;23.33;8.90;;;31.90;76.80;;;;;;5082242;28;20100;-55
2021/09/11 07:38:08;;;;;;;23.63;7.60;;;31.80;77.20;;;;;;5082695;28;20080;-57
2021/09/11 07:40:35;;;;;;;17.27;6.63;;;31.80;77.60;;;;;;5081845;28;20134;-52
2021/09/11 07:43:02;;;;;;;28.40;7.22;;;31.80;78.30;;;;;;5082305;28;20148;-55
2021/09/11 07:45:29;;;;;;;19.92;6.85;;;31.60;79.30;;;;;;5083206;28;20188;-57
2021/09/11 07:47:57;;;;;;;18.15;6.97;;;31.70;79.80;;;;;;5084341;28;20075;-52
2021/09/11 07:50:28;;;;;;;21.58;7.85;;;31.70;80.50;;;;;;5086978;28;20092;-55
2021/09/11 07:52:55;;;;;;;19.15;8.57;;;31.70;81.00;;;;;;5080416;28;20069;-53
2021/09/11 07:55:21;;;;;;;18.60;8.88;;;31.60;81.70;;;;;;5080093;28;20073;-55
2021/09/11 07:57:48;;;;;;;19.85;8.00;;;31.50;82.20;;;;;;5082217;28;20111;-56
2021/09/11 08:00:17;;;;;;;15.50;7.10;;;31.40;83.20;;;;;;5082562;28;20077;-56
2021/09/11 08:02:43;;;;;;;22.00;6.40;;;31.40;83.80;;;;;;5084849;28;20552;-54
2021/09/11 08:05:10;;;;;;;21.58;5.10;;;31.50;84.20;;;;;;5082624;28;20219;-56
2021/09/11 08:07:37;;;;;;;17.95;4.75;;;31.60;84.60;;;;;;5081525;28;20088;-54
2021/09/11 08:10:04;;;;;;;12.82;4.07;;;31.60;84.90;;;;;;5070925;28;20080;-55
2021/09/11 08:12:30;;;;;;;21.23;4.35;;;31.60;85.80;;;;;;5079851;28;20065;-54
2021/09/11 08:14:58;;;;;;;17.50;4.20;;;31.60;86.50;;;;;;5081717;28;20081;-53
2021/09/11 08:17:25;;;;;;;12.98;3.45;;;31.60;86.70;;;;;;5082968;28;20081;-56
2021/09/11 08:19:51;;;;;;;15.43;3.97;;;31.60;87.20;;;;;;5082478;28;20122;-52
2021/09/11 08:22:18;;;;;;;17.60;4.40;;;31.60;87.50;;;;;;5082717;28;20045;-53
2021/09/11 08:24:45;;;;;;;13.35;4.07;;;31.40;88.50;;;;;;5079741;28;20084;-55
2021/09/11 08:27:11;;;;;;;14.18;3.65;;;31.40;89.00;;;;;;5086660;28;20130;-56
2021/09/11 08:29:38;;;;;;;10.82;4.05;;;31.50;89.30;;;;;;5080068;28;20092;-59
2021/09/11 08:32:05;;;;;;;22.33;4.57;;;31.50;89.20;;;;;;5081861;28;20073;-57
2021/09/11 08:34:31;;;;;;;17.90;4.25;;;31.50;89.20;;;;;;5083541;28;20073;-55
2021/09/11 08:36:58;;;;;;;16.20;4.15;;;31.60;89.30;;;;;;5081001;28;20085;-58
2021/09/11 08:39:25;;;;;;;13.35;3.65;;;31.60;89.70;;;;;;5083305;28;20069;-57
2021/09/11 08:41:53;;;;;;;17.63;4.70;;;31.30;90.00;;;;;;5082832;28;20103;-57
2021/09/11 08:44:20;;;;;;;12.75;3.70;;;31.40;90.30;;;;;;5084670;28;20145;-58
2021/09/11 08:46:48;;;;;;;15.30;4.05;;;31.50;90.10;;;;;;5080976;28;20168;-54
2021/09/11 08:49:16;;;;;;;24.00;4.60;;;31.50;90.20;;;;;;5081997;28;20069;-58
2021/09/11 08:51:42;;;;;;;16.55;4.85;;;31.50;90.60;;;;;;5084265;28;20111;-56
2021/09/11 08:54:09;;;;;;;14.13;4.10;;;31.40;90.90;;;;;;5081383;28;20114;-58
2021/09/11 08:56:45;;;;;;;19.48;4.22;;;31.40;90.70;;;;;;5079717;28;20079;-56
2021/09/11 08:59:12;;;;;;;;;;;31.40;91.10;;;;;;5084531;28;20462;-55
2021/09/11 09:01:39;;;;;;;17.92;4.20;;;31.40;91.20;;;;;;5080587;28;20048;-56
2021/09/11 09:04:08;;;;;;;15.55;3.90;;;31.20;91.50;;;;;;5083734;28;20127;-56
2021/09/11 09:06:36;;;;;;;12.18;4.00;;;31.00;92.40;;;;;;5083326;28;20024;-58
2021/09/11 09:09:11;;;;;;;12.07;4.20;;;31.00;92.60;;;;;;5079097;28;20522;-53
2021/09/11 09:11:42;;;;;;;19.55;4.13;;;31.10;92.80;;;;;;5078778;28;20079;-58
2021/09/11 09:14:15;;;;;;;13.60;3.58;;;31.00;93.60;;;;;;5078028;28;20074;-51
2021/09/11 09:16:43;;;;;;;14.38;3.65;;;31.10;93.40;;;;;;5080522;28;20081;-54
2021/09/11 09:19:30;;;;;;;21.45;4.10;;;31.10;93.20;;;;;;5082855;28;20073;-52
2021/09/11 09:22:02;;;;;;;18.17;4.38;;;30.90;93.40;;;;;;5082492;28;20081;-55
2021/09/11 09:24:38;;;;;;;13.93;3.97;;;30.90;93.70;;;;;;5082750;28;20449;-55
2021/09/11 09:27:09;;;;;;;10.25;4.43;;;31.00;93.80;;;;;;5080121;28;20150;-58
2021/09/11 09:29:38;;;;;;;13.93;5.03;;;31.00;94.00;;;;;;5080895;28;20553;-57
2021/09/11 09:32:05;;;;;;;14.57;4.68;;;30.90;94.00;;;;;;5089720;28;20104;-57
2021/09/11 09:34:33;;;;;;;19.40;5.22;;;30.80;94.50;;;;;;5086714;28;20077;-57
2021/09/11 09:37:02;;;;;;;13.48;4.30;;;30.90;94.30;;;;;;5084885;28;20077;-58
2021/09/11 09:39:28;;;;;;;13.05;4.68;;;30.80;94.30;;;;;;5082270;28;20098;-58
2021/09/11 09:42:05;;;;;;;14.75;4.97;;;30.70;95.60;;;;;;5086736;28;20081;-57
2021/09/11 09:44:39;;;;;;;;;;;30.70;94.40;;;;;;5084889;28;20178;-58
2021/09/11 09:47:06;;;;;;;15.63;4.60;;;30.70;94.40;;;;;;5084477;28;19953;-57
2021/09/11 09:49:32;;;;;;;14.77;5.10;;;30.70;93.90;;;;;;5085561;28;21164;-58
2021/09/11 09:51:59;;;;;;;13.93;4.95;;;30.80;93.80;;;;;;5080267;28;20381;-55
2021/09/11 09:54:26;;;;;;;17.35;5.35;;;30.80;94.10;;;;;;5086722;28;20506;-56
2021/09/11 09:56:52;;;;;;;18.50;5.25;;;30.80;94.10;;;;;;5085510;28;20081;-58
2021/09/11 09:59:19;;;;;;;17.63;5.18;;;30.60;94.70;;;;;;5084619;28;20080;-56
2021/09/11 10:01:49;;;;;;;18.15;5.18;;;30.70;94.80;;;;;;5086023;28;20411;-58
2021/09/11 10:04:21;;;;;;;20.35;5.13;;;30.60;94.80;;;;;;5081625;28;20570;-58
2021/09/11 10:07:01;;;;;;;16.98;5.60;;;30.60;95.40;;;;;;5082525;28;20100;-58
2021/09/11 10:09:29;;;;;;;15.65;4.43;;;30.60;95.40;;;;;;5087156;28;20079;-58
2021/09/11 10:11:56;;;;;;;20.40;4.88;;;30.60;95.50;;;;;;5084575;28;20088;-58
2021/09/11 10:14:32;;;;;;;19.60;5.32;;;30.60;95.70;;;;;;5087268;28;20072;-57
2021/09/11 10:17:04;;;;;;;15.82;4.50;;;30.70;95.90;;;;;;5088812;28;20602;-59
2021/09/11 10:19:36;;;;;;;16.95;4.05;;;30.80;95.80;;;;;;5083642;28;20117;-59
2021/09/11 10:22:19;;;;;;;19.15;4.78;;;30.80;95.50;;;;;;5082122;28;20460;-59
2021/09/11 10:25:04;;;;;;;16.63;4.05;;;30.80;95.80;;;;;;5082645;28;20095;-59
2021/09/11 10:27:36;;;;;;;14.88;4.55;;;30.80;96.10;;;;;;5082408;28;20092;-58
2021/09/11 10:30:09;;;;;;;13.98;4.55;;;;;;;;;;5086354;28;20414;-58
2021/09/11 10:32:38;;;;;;;16.20;4.40;;;30.70;99.90;;;;;;5081726;28;20146;-57
2021/09/11 10:35:13;;;;;;;18.60;4.90;;;30.70;96.70;;;;;;5083979;28;20155;-58
2021/09/11 10:37:50;;;;;;;14.23;4.03;;;30.80;96.60;;;;;;5086025;28;20091;-57
2021/09/11 10:40:32;;;;;;;16.13;4.35;;;30.70;96.40;;;;;;5085500;28;20088;-58
2021/09/11 10:43:04;;;;;;;16.17;4.10;;;30.60;96.50;;;;;;5081566;28;20073;-57
2021/09/11 10:46:02;;;;;;;11.68;3.90;;;30.40;99.90;;;;;;5084602;28;20168;-58
2021/09/11 10:48:35;;;;;;;16.77;4.00;;;30.50;96.40;;;;;;5080083;28;20600;-55
2021/09/11 10:51:23;;;;;;;11.63;3.60;;;30.60;99.90;;;;;;5085982;28;20131;-58
2021/09/11 10:54:13;;;;;;;17.38;3.90;;;30.60;95.90;;;;;;5085106;28;20073;-58
2021/09/11 10:56:51;;;;;;;14.07;3.80;;;30.50;95.80;;;;;;5081239;28;20571;-58
2021/09/11 10:59:21;;;;;;;16.63;3.95;;;30.40;95.80;;;;;;5081167;28;20079;-57
2021/09/11 11:02:20;;;;;;;11.80;4.25;;;30.50;95.20;;;;;;5084421;28;20247;-58
2021/09/11 11:04:49;;;;;;;16.00;4.15;;;30.50;94.70;;;;;;5081782;28;20191;-56
2021/09/11 11:07:18;;;;;;;12.68;3.42;;;30.60;94.30;;;;;;5082871;28;20546;-57
2021/09/11 11:09:50;;;;;;;16.00;3.42;;;30.30;99.90;;;;;;5085634;28;20076;-55
2021/09/11 11:12:34;;;;;;;13.65;3.92;;;30.50;99.90;;;;;;5087201;28;20254;-54
2021/09/11 11:15:12;;;;;;;11.27;3.53;;;30.50;95.40;;;;;;5080015;28;20108;-58
2021/09/11 11:17:49;;;;;;;10.30;3.60;;;30.50;94.20;;;;;;5082722;28;20122;-56
2021/09/11 11:20:22;;;;;;;12.60;3.88;;;30.50;93.90;;;;;;5081518;28;20121;-54
2021/09/11 11:22:48;;;;;;;11.52;3.38;;;30.40;93.60;;;;;;5082256;28;20072;-54
2021/09/11 11:25:38;;;;;;;10.73;3.55;;;30.40;93.60;;;;;;5083998;28;20099;-58
2021/09/11 11:28:10;;;;;;;9.77;3.33;;;30.40;94.20;;;;;;5084108;28;20163;-57
2021/09/11 11:30:42;;;;;;;11.57;4.00;;;30.30;93.70;;;;;;5080649;28;20069;-56
2021/09/11 11:33:09;;;;;;;9.10;3.55;;;30.30;94.00;;;;;;5082565;28;20104;-53
2021/09/11 11:35:40;;;;;;;11.73;3.88;;;30.20;93.90;;;;;;5083622;28;20168;-54
2021/09/11 11:38:07;;;;;;;15.23;5.03;;;;;;;;;;5080403;28;20077;-56
2021/09/11 11:40:34;;;;;;;12.23;4.03;;;30.10;98.60;;;;;;5084505;28;21146;-54
2021/09/11 11:43:05;;;;;;;12.73;3.75;;;30.10;94.80;;;;;;5084375;28;20104;-51
2021/09/11 11:45:33;;;;;;;13.57;4.75;;;30.10;93.50;;;;;;5080528;28;20151;-53
2021/09/11 11:48:07;;;;;;;14.52;4.57;;;30.10;94.70;;;;;;5084493;28;20069;-56
2021/09/11 11:50:35;;;;;;;16.83;4.63;;;30.10;99.90;;;;;;5077366;28;20059;-51
2021/09/11 11:53:14;;;;;;;14.65;4.60;;;30.40;99.90;;;;;;5082949;28;20069;-56
2021/09/11 11:55:45;;;;;;;14.43;4.18;;;30.30;98.30;;;;;;5084821;28;20534;-51
2021/09/11 11:58:11;;;;;;;11.70;4.50;;;;;;;;;;5082711;28;20062;-58
2021/09/11 12:00:51;;;;;;;13.38;4.53;;;30.10;96.40;;;;;;5085336;28;20082;-57
2021/09/11 12:03:40;;;;;;;17.05;6.20;;;30.20;99.90;;;;;;5079299;28;20035;-57
2021/09/11 12:06:08;;;;;;;17.73;5.00;;;;;;;;;;5083346;28;20501;-57
